createdAt,value
2019-05-21T00:00:10.853Z,99093.75
2019-05-21T00:02:40.302Z,99097.22
2019-05-21T00:05:09.837Z,99107.25
2019-05-21T00:07:39.250Z,99111.33
2019-05-21T00:10:08.795Z,99113.25
2019-05-21T00:12:38.181Z,99112.83
2019-05-21T00:15:08.061Z,99106.12
2019-05-21T00:17:37.505Z,99107.55
2019-05-21T00:20:07.640Z,99107.83
2019-05-21T00:22:37.046Z,99112.11
2019-05-21T00:25:06.808Z,99103.22
2019-05-21T00:27:36.283Z,99093.97
2019-05-21T00:30:41.971Z,99096.08
2019-05-21T00:33:47.697Z,99092.65
2019-05-21T00:36:55.355Z,99103.22
2019-05-21T00:40:01.365Z,99099.81
2019-05-21T00:42:36.801Z,99098.51
2019-05-21T00:45:11.588Z,99100.90
2019-05-21T00:47:41.036Z,99093.61
2019-05-21T00:50:11.695Z,99100.77
2019-05-21T00:52:41.054Z,99098.11
2019-05-21T00:55:10.472Z,99098.22
2019-05-21T00:57:39.935Z,99103.39
2019-05-21T01:00:10.076Z,99098.26
2019-05-21T01:02:39.687Z,99101.84
2019-05-21T01:05:09.209Z,99105.33
2019-05-21T01:07:38.656Z,99094.92
2019-05-21T01:10:08.479Z,99105.11
2019-05-21T01:12:37.885Z,99104.72
2019-05-21T01:15:08.146Z,99105.73
2019-05-21T01:17:37.563Z,99108.39
2019-05-21T01:20:07.124Z,99115.08
2019-05-21T01:22:36.566Z,99113.38
2019-05-21T01:25:06.899Z,99123.96
2019-05-21T01:27:36.343Z,99118.83
2019-05-21T01:30:06.998Z,99124.67
2019-05-21T01:32:36.431Z,99128.17
2019-05-21T01:35:16.735Z,99130.46
2019-05-21T01:37:37.846Z,99134.08
2019-05-21T01:40:07.249Z,99129.36
2019-05-21T01:42:36.593Z,99134.27
2019-05-21T01:45:07.040Z,99132.47
2019-05-21T01:47:36.545Z,99122.16
2019-05-21T01:50:07.053Z,99126.53
2019-05-21T01:52:36.417Z,99114.58
2019-05-21T01:55:06.497Z,99116.49
2019-05-21T01:57:35.932Z,99119.03
2019-05-21T02:00:06.943Z,99123.92
2019-05-21T02:02:36.479Z,99126.19
2019-05-21T02:05:07.430Z,99124.88
2019-05-21T02:07:37.065Z,99127.28
2019-05-21T02:10:08.260Z,99137.94
2019-05-21T02:12:37.800Z,99135.80
2019-05-21T02:15:07.862Z,99139.16
2019-05-21T02:17:37.209Z,99137.36
2019-05-21T02:20:06.983Z,99139.06
2019-05-21T02:22:36.421Z,99137.61
2019-05-21T02:25:07.580Z,99137.50
2019-05-21T02:27:37.023Z,99146.25
2019-05-21T02:30:08.720Z,99141.94
2019-05-21T02:32:38.449Z,99138.33
2019-05-21T02:35:07.810Z,99145.27
2019-05-21T02:37:37.248Z,99147.05
2019-05-21T02:40:07.183Z,99149.61
2019-05-21T02:42:36.642Z,99146.28
2019-05-21T02:45:06.989Z,99156.92
2019-05-21T02:47:36.451Z,99163.27
2019-05-21T02:50:07.811Z,99158.23
2019-05-21T02:52:37.227Z,99165.70
2019-05-21T02:55:07.490Z,99167.00
2019-05-21T02:57:41.465Z,99168.91
2019-05-21T03:00:33.252Z,99175.88
2019-05-21T03:03:04.363Z,99179.09
2019-05-21T03:05:33.745Z,99175.84
2019-05-21T03:08:03.173Z,99178.13
2019-05-21T03:10:32.600Z,99168.44
2019-05-21T03:13:02.080Z,99179.55
2019-05-21T03:15:31.403Z,99178.27
2019-05-21T03:18:00.841Z,99175.73
2019-05-21T03:20:30.294Z,99175.59
2019-05-21T03:22:59.715Z,99174.12
2019-05-21T03:25:29.165Z,99175.72
2019-05-21T03:27:58.517Z,99174.70
2019-05-21T03:30:27.902Z,99180.03
2019-05-21T03:32:57.248Z,99177.74
2019-05-21T03:35:26.683Z,99180.03
2019-05-21T03:37:56.129Z,99174.45
2019-05-21T03:40:25.617Z,99170.77
2019-05-21T03:42:55.070Z,99184.80
2019-05-21T03:45:24.675Z,99188.14
2019-05-21T03:47:54.229Z,99183.66
2019-05-21T03:50:23.648Z,99197.91
2019-05-21T03:52:53.089Z,99197.91
2019-05-21T03:55:25.513Z,99190.78
2019-05-21T03:57:56.442Z,99197.09
2019-05-21T04:00:25.996Z,99203.81
2019-05-21T04:02:55.372Z,99207.23
2019-05-21T04:05:31.482Z,99201.84
2019-05-21T04:08:00.954Z,99202.34
2019-05-21T04:10:31.877Z,99208.05
2019-05-21T04:13:10.365Z,99199.68
2019-05-21T04:15:46.817Z,99209.08
2019-05-21T04:18:20.368Z,99209.08
2019-05-21T04:20:52.359Z,99202.95
2019-05-21T04:23:21.481Z,99211.50
2019-05-21T04:25:50.902Z,99216.42
2019-05-21T04:28:20.344Z,99207.76
2019-05-21T04:30:49.725Z,99214.80
2019-05-21T04:33:19.065Z,99219.22
2019-05-21T04:35:48.492Z,99223.53
2019-05-21T04:38:17.936Z,99218.34
2019-05-21T04:40:47.307Z,99218.38
2019-05-21T04:43:16.737Z,99215.14
2019-05-21T04:45:46.127Z,99216.28
2019-05-21T04:48:15.509Z,99218.20
2019-05-21T04:50:44.912Z,99219.25
2019-05-21T04:53:14.326Z,99225.22
2019-05-21T04:55:43.786Z,99221.36
2019-05-21T04:58:13.172Z,99216.77
2019-05-21T05:00:42.605Z,99215.12
2019-05-21T05:03:12.047Z,99210.67
2019-05-21T05:05:41.705Z,99227.23
2019-05-21T05:08:11.176Z,99227.23
2019-05-21T05:10:40.816Z,99221.81
2019-05-21T05:13:10.222Z,99219.47
2019-05-21T05:15:39.622Z,99216.14
2019-05-21T05:18:09.067Z,99218.13
2019-05-21T05:20:38.527Z,99214.55
2019-05-21T05:23:08.051Z,99217.42
2019-05-21T05:25:37.478Z,99220.25
2019-05-21T05:28:07.019Z,99218.17
2019-05-21T05:30:36.650Z,99219.73
2019-05-21T05:33:06.039Z,99220.27
2019-05-21T05:35:35.752Z,99219.41
2019-05-21T05:38:05.127Z,99224.15
2019-05-21T05:40:34.603Z,99232.83
2019-05-21T05:43:04.199Z,99236.22
2019-05-21T05:45:33.716Z,99233.59
2019-05-21T05:48:03.188Z,99236.11
2019-05-21T05:50:50.401Z,99235.80
2019-05-21T05:53:20.006Z,99232.97
2019-05-21T05:55:49.458Z,99224.42
2019-05-21T05:58:18.905Z,99219.50
2019-05-21T06:00:50.503Z,99228.76
2019-05-21T06:03:19.593Z,99228.76
2019-05-21T06:05:49.273Z,99224.98
2019-05-21T06:08:20.167Z,99220.61
2019-05-21T06:10:49.653Z,99220.61
2019-05-21T06:13:19.148Z,99221.87
2019-05-21T06:15:48.725Z,99223.06
2019-05-21T06:18:19.523Z,99218.91
2019-05-21T06:20:49.203Z,99205.18
2019-05-21T06:23:18.918Z,99211.61
2019-05-21T06:25:51.383Z,99211.61
2019-05-21T06:28:20.969Z,99215.45
2019-05-21T06:30:50.402Z,99219.30
2019-05-21T06:33:19.599Z,99219.30
2019-05-21T06:35:49.062Z,99220.38
2019-05-21T06:38:18.650Z,99220.38
2019-05-21T06:40:48.219Z,99218.70
2019-05-21T06:43:17.735Z,99218.14
2019-05-21T06:45:47.079Z,99218.14
2019-05-21T06:48:21.656Z,99222.15
2019-05-21T06:50:52.243Z,99222.20
2019-05-21T06:53:21.533Z,99220.09
2019-05-21T06:55:54.032Z,99217.59
2019-05-21T06:58:23.564Z,99225.70
2019-05-21T07:00:52.871Z,99219.88
2019-05-21T07:03:25.385Z,99223.27
2019-05-21T07:05:58.832Z,99217.86
2019-05-21T07:08:34.192Z,99214.56
2019-05-21T07:10:56.771Z,99210.97
2019-05-21T07:13:26.068Z,99211.84
2019-05-21T07:15:56.805Z,99213.12
2019-05-21T07:18:27.648Z,99206.16
2019-05-21T07:21:05.951Z,99196.30
2019-05-21T07:23:35.170Z,99191.77
2019-05-21T07:26:13.520Z,99196.41
2019-05-21T07:28:42.992Z,99196.69
2019-05-21T07:31:17.229Z,99196.89
2019-05-21T07:33:49.038Z,99196.86
2019-05-21T07:36:29.754Z,99196.33
2019-05-21T07:38:59.075Z,99190.38
2019-05-21T07:41:30.135Z,99194.68
2019-05-21T07:44:01.189Z,99190.80
2019-05-21T07:46:32.449Z,99188.20
2019-05-21T07:49:04.709Z,99188.70
2019-05-21T07:51:37.007Z,99197.20
2019-05-21T07:54:08.470Z,99191.85
2019-05-21T07:56:40.962Z,99195.26
2019-05-21T07:59:10.471Z,99194.65
2019-05-21T08:01:39.729Z,99195.44
2019-05-21T08:04:09.137Z,99192.34
2019-05-21T08:06:38.390Z,99181.52
2019-05-21T08:09:14.091Z,99180.13
2019-05-21T08:11:50.372Z,99181.66
2019-05-21T08:14:19.538Z,99177.34
2019-05-21T08:16:48.915Z,99188.43
2019-05-21T08:19:23.437Z,99181.91
2019-05-21T08:21:58.346Z,99180.83
2019-05-21T08:24:47.193Z,99173.13
2019-05-21T08:27:21.855Z,99175.41
2019-05-21T08:29:53.874Z,99173.41
2019-05-21T08:32:22.906Z,99165.89
2019-05-21T08:34:52.357Z,99164.58
2019-05-21T08:37:23.077Z,99169.61
2019-05-21T08:39:55.316Z,99159.55
2019-05-21T08:42:26.069Z,99166.06
2019-05-21T08:45:09.676Z,99156.05
2019-05-21T08:47:40.308Z,99156.85
2019-05-21T08:50:10.460Z,99164.70
2019-05-21T08:52:41.229Z,99164.22
2019-05-21T08:55:16.361Z,99162.16
2019-05-21T09:00:39.615Z,99152.58
2019-05-21T09:03:28.948Z,99148.80
2019-05-21T09:08:30.267Z,99151.95
2019-05-21T09:11:01.219Z,99151.94
2019-05-21T09:13:52.259Z,99152.02
2019-05-21T09:16:26.064Z,99146.25
2019-05-21T09:18:58.548Z,99142.91
2019-05-21T09:24:19.171Z,99139.92
2019-05-21T09:27:01.458Z,99137.48
2019-05-21T09:35:32.158Z,99143.15
2019-05-21T09:38:04.532Z,99140.96
2019-05-21T09:43:30.206Z,99140.28
2019-05-21T09:46:02.096Z,99139.41
2019-05-21T09:48:32.746Z,99127.50
2019-05-21T09:51:04.824Z,99129.56
2019-05-21T09:53:34.091Z,99125.72
2019-05-21T09:56:05.159Z,99120.02
2019-05-21T09:58:37.402Z,99117.92
2019-05-21T10:01:14.305Z,99113.52
2019-05-21T10:03:47.890Z,99114.85
2019-05-21T10:06:25.993Z,99106.11
2019-05-21T10:08:59.016Z,99109.69
2019-05-21T10:11:32.941Z,99104.00
2019-05-21T10:14:02.175Z,99106.98
2019-05-21T10:16:35.476Z,99104.19
2019-05-21T10:19:07.578Z,99100.72
2019-05-21T10:22:08.380Z,99100.92
2019-05-21T10:24:22.518Z,99097.72
2019-05-21T10:26:54.496Z,99093.19
2019-05-21T10:29:31.947Z,99104.19
2019-05-21T10:32:01.375Z,99100.50
2019-05-21T10:34:30.965Z,99095.52
2019-05-21T10:37:03.475Z,99098.49
2019-05-21T10:39:32.802Z,99088.84
2019-05-21T10:42:02.209Z,99087.95
2019-05-21T10:44:43.667Z,99081.73
2019-05-21T10:47:16.205Z,99081.61
2019-05-21T10:52:37.681Z,99079.00
2019-05-21T10:55:07.095Z,99075.36
2019-05-21T10:57:36.242Z,99063.87
2019-05-21T11:00:14.670Z,99068.23
2019-05-21T11:05:28.969Z,99059.42
2019-05-21T11:08:23.060Z,99060.68
2019-05-21T11:10:37.961Z,99060.85
2019-05-21T11:13:09.414Z,99059.05
2019-05-21T11:15:44.187Z,99054.22
2019-05-21T11:18:16.735Z,99053.38
2019-05-21T11:20:53.335Z,99047.20
2019-05-21T11:23:22.417Z,99046.34
2019-05-21T11:25:51.539Z,99035.83
2019-05-21T11:28:20.668Z,99043.55
2019-05-21T11:33:41.978Z,99041.83
2019-05-21T11:38:59.409Z,99040.13
2019-05-21T11:41:30.764Z,99033.18
2019-05-21T11:44:02.779Z,99032.18
2019-05-21T11:46:33.925Z,99036.92
2019-05-21T11:49:05.879Z,99034.63
2019-05-21T11:51:39.411Z,99039.78
2019-05-21T11:57:01.368Z,99035.90
2019-05-21T11:59:33.272Z,99024.58
2019-05-21T12:02:07.028Z,99028.33
2019-05-21T12:04:51.819Z,99022.16
2019-05-21T12:07:24.107Z,99021.25
2019-05-21T12:09:55.263Z,99020.56
2019-05-21T12:12:28.274Z,99014.90
2019-05-21T12:15:00.579Z,99013.02
2019-05-21T12:17:32.484Z,99012.53
2019-05-21T12:20:05.169Z,99008.03
2019-05-21T12:22:37.663Z,99001.11
2019-05-21T12:25:09.288Z,98989.46
2019-05-21T12:27:53.128Z,98991.91
2019-05-21T12:30:22.737Z,98980.30
2019-05-21T12:32:56.057Z,98988.67
2019-05-21T12:41:19.838Z,98978.41
2019-05-21T12:43:59.169Z,98978.97
2019-05-21T12:46:29.424Z,98975.89
2019-05-21T12:48:58.828Z,98973.95
2019-05-21T12:51:31.215Z,98974.28
2019-05-21T12:56:54.682Z,98974.44
2019-05-21T12:59:25.604Z,98975.38
2019-05-21T13:02:00.733Z,98978.30
2019-05-21T13:04:34.227Z,98977.19
2019-05-21T13:07:03.832Z,98971.20
2019-05-21T13:09:35.691Z,98974.92
2019-05-21T13:12:05.131Z,98970.29
2019-05-21T13:14:35.722Z,98982.27
2019-05-21T13:17:09.223Z,98987.30
2019-05-21T13:19:41.521Z,98991.61
2019-05-21T13:22:23.809Z,98993.35
2019-05-21T13:24:59.239Z,98991.25
2019-05-21T13:27:30.223Z,98990.27
2019-05-21T13:29:59.623Z,98987.70
2019-05-21T13:32:31.880Z,98985.27
2019-05-21T13:35:05.792Z,98982.95
2019-05-21T13:37:35.430Z,98981.33
2019-05-21T13:40:07.531Z,98977.43
2019-05-21T13:42:39.800Z,98973.17
2019-05-21T13:45:09.575Z,98973.44
2019-05-21T13:47:50.288Z,98973.67
2019-05-21T13:50:17.020Z,98972.84
2019-05-21T13:52:49.291Z,98968.77
2019-05-21T13:55:23.603Z,98969.12
2019-05-21T13:57:54.173Z,98970.52
2019-05-21T14:00:27.747Z,98969.81
2019-05-21T14:03:01.362Z,98961.34
2019-05-21T14:05:30.582Z,98960.59
2019-05-21T14:08:02.043Z,98960.87
2019-05-21T14:10:35.518Z,98958.48
2019-05-21T14:13:05.429Z,98961.52
2019-05-21T14:15:39.799Z,98954.65
2019-05-21T14:18:14.220Z,98958.94
2019-05-21T14:20:43.398Z,98946.26
2019-05-21T14:23:12.528Z,98948.88
2019-05-21T14:25:41.584Z,98956.74
2019-05-21T14:28:10.657Z,98958.88
2019-05-21T14:30:39.754Z,98960.59
2019-05-21T14:33:08.844Z,98950.58
2019-05-21T14:35:39.679Z,98954.70
2019-05-21T14:38:09.292Z,98954.37
2019-05-21T14:40:42.845Z,98948.38
2019-05-21T14:43:23.114Z,98954.25
2019-05-21T14:45:53.102Z,98954.47
2019-05-21T14:48:22.438Z,98956.19
2019-05-21T14:53:40.035Z,98949.34
2019-05-21T14:56:09.160Z,98951.88
2019-05-21T14:58:38.341Z,98943.72
2019-05-21T15:01:16.368Z,98948.16
2019-05-21T15:03:48.517Z,98944.80
2019-05-21T15:06:20.905Z,98941.19
2019-05-21T15:08:50.507Z,98949.28
2019-05-21T15:11:19.653Z,98942.61
2019-05-21T15:13:51.361Z,98938.69
2019-05-21T15:16:20.857Z,98940.03
2019-05-21T15:18:49.988Z,98937.41
2019-05-21T15:21:23.869Z,98932.30
2019-05-21T15:24:01.167Z,98931.27
2019-05-21T15:26:31.108Z,98931.20
2019-05-21T15:29:04.514Z,98934.64
2019-05-21T15:31:35.398Z,98938.11
2019-05-21T15:34:13.840Z,98930.33
2019-05-21T15:36:46.575Z,98942.65
2019-05-21T15:39:21.987Z,98936.75
2019-05-21T15:42:01.809Z,98937.16
2019-05-21T15:44:30.800Z,98934.28
2019-05-21T15:47:06.580Z,98940.39
2019-05-21T15:49:37.141Z,98948.05
2019-05-21T15:52:09.837Z,98950.11
2019-05-21T15:54:41.709Z,98949.70
2019-05-21T15:57:12.470Z,98949.80
2019-05-21T15:59:43.461Z,98948.64
2019-05-21T16:02:14.795Z,98961.38
2019-05-21T16:04:45.505Z,98965.77
2019-05-21T16:07:15.033Z,98957.80
2019-05-21T16:09:48.154Z,98958.63
2019-05-21T16:12:17.506Z,98964.34
2019-05-21T16:14:51.211Z,98969.81
2019-05-21T16:17:20.630Z,98969.68
2019-05-21T16:19:49.857Z,98971.49
2019-05-21T16:22:21.248Z,98970.38
2019-05-21T16:24:53.778Z,98967.46
2019-05-21T16:30:14.621Z,98966.70
2019-05-21T16:32:43.588Z,98973.13
2019-05-21T16:35:13.032Z,98968.90
2019-05-21T16:40:30.557Z,98971.44
2019-05-21T16:42:59.616Z,98980.67
2019-05-21T16:45:29.091Z,98985.66
2019-05-21T16:47:58.393Z,98990.61
2019-05-21T16:50:27.844Z,98991.48
2019-05-21T16:52:57.275Z,98999.77
2019-05-21T16:55:26.694Z,99003.28
2019-05-21T16:57:58.913Z,99015.44
2019-05-21T17:00:28.784Z,99013.13
2019-05-21T17:02:58.225Z,99016.89
2019-05-21T17:05:27.476Z,99017.02
2019-05-21T17:07:56.982Z,99014.58
2019-05-21T17:10:26.282Z,99020.78
2019-05-21T17:12:55.457Z,99020.78
2019-05-21T17:15:25.011Z,99023.88
2019-05-21T17:17:54.513Z,99026.31
2019-05-21T17:20:23.925Z,99026.88
2019-05-21T17:22:53.141Z,99044.44
2019-05-21T17:25:22.761Z,99048.22
2019-05-21T17:27:55.985Z,99054.11
2019-05-21T17:30:25.494Z,99056.13
2019-05-21T17:32:55.026Z,99056.13
2019-05-21T17:35:24.653Z,99056.86
2019-05-21T17:37:54.285Z,99065.70
2019-05-21T17:40:23.767Z,99057.58
2019-05-21T17:42:53.203Z,99045.41
2019-05-21T17:45:24.183Z,99045.41
2019-05-21T17:47:53.852Z,99062.80
2019-05-21T17:50:23.420Z,99072.22
2019-05-21T17:52:53.035Z,99078.43
2019-05-21T17:55:25.834Z,99078.91
2019-05-21T17:57:55.519Z,99078.91
2019-05-21T18:00:26.666Z,99084.66
2019-05-21T18:02:56.478Z,99080.64
2019-05-21T18:05:26.393Z,99092.09
2019-05-21T18:07:56.159Z,99091.77
2019-05-21T18:10:26.015Z,99098.13
2019-05-21T18:12:58.279Z,99103.64
2019-05-21T18:15:28.407Z,99103.16
2019-05-21T18:17:58.698Z,99103.16
2019-05-21T18:20:29.239Z,99114.70
2019-05-21T18:22:58.858Z,99114.70
2019-05-21T18:25:28.402Z,99124.94
2019-05-21T18:27:58.007Z,99124.94
2019-05-21T18:30:27.681Z,99140.45
2019-05-21T18:32:57.350Z,99134.63
2019-05-21T18:35:28.514Z,99135.61
2019-05-21T18:37:58.166Z,99144.97
2019-05-21T18:40:27.782Z,99144.97
2019-05-21T18:42:57.254Z,99151.47
2019-05-21T18:45:26.803Z,99154.66
2019-05-21T18:47:56.342Z,99159.16
2019-05-21T18:50:35.619Z,99171.81
2019-05-21T18:52:57.004Z,99179.63
2019-05-21T18:55:26.519Z,99179.63
2019-05-21T18:57:55.989Z,99195.09
2019-05-21T19:00:26.655Z,99195.09
2019-05-21T19:02:56.136Z,99199.05
2019-05-21T19:05:25.808Z,99210.52
2019-05-21T19:07:56.281Z,99224.30
2019-05-21T19:10:25.913Z,99224.30
2019-05-21T19:12:55.391Z,99222.45
2019-05-21T19:15:24.848Z,99222.42
2019-05-21T19:17:54.396Z,99235.71
2019-05-21T19:20:26.086Z,99234.69
2019-05-21T19:22:55.626Z,99242.51
2019-05-21T19:25:26.751Z,99251.80
2019-05-21T19:27:56.246Z,99253.77
2019-05-21T19:30:25.695Z,99253.77
2019-05-21T19:32:55.238Z,99263.84
2019-05-21T19:35:25.791Z,99263.84
2019-05-21T19:37:55.201Z,99269.94
2019-05-21T19:40:24.680Z,99269.94
2019-05-21T19:42:55.593Z,99274.89
2019-05-21T19:45:25.292Z,99282.76
2019-05-21T19:47:54.726Z,99282.05
2019-05-21T19:50:24.304Z,99287.31
2019-05-21T19:52:53.736Z,99287.31
2019-05-21T19:55:23.994Z,99290.65
2019-05-21T19:57:53.578Z,99298.19
2019-05-21T20:00:24.718Z,99293.98
2019-05-21T20:02:54.282Z,99305.17
2019-05-21T20:05:23.817Z,99305.17
2019-05-21T20:07:53.286Z,99295.96
2019-05-21T20:10:22.847Z,99291.16
2019-05-21T20:12:52.412Z,99297.25
2019-05-21T20:15:21.948Z,99297.25
2019-05-21T20:18:06.203Z,99306.98
2019-05-21T20:20:25.619Z,99306.98
2019-05-21T20:22:56.972Z,99303.72
2019-05-21T20:25:26.999Z,99310.73
2019-05-21T20:27:56.634Z,99309.00
2019-05-21T20:30:26.712Z,99302.62
2019-05-21T20:32:56.357Z,99302.62
2019-05-21T20:35:27.808Z,99308.33
2019-05-21T20:37:57.394Z,99308.75
2019-05-21T20:40:27.009Z,99306.59
2019-05-21T20:42:56.529Z,99316.89
2019-05-21T20:45:27.413Z,99316.19
2019-05-21T20:47:57.951Z,99313.41
2019-05-21T20:50:27.778Z,99311.53
2019-05-21T20:52:57.239Z,99314.94
2019-05-21T20:55:26.813Z,99315.64
2019-05-21T20:57:56.258Z,99321.31
2019-05-21T21:00:30.329Z,99317.82
2019-05-21T21:03:00.653Z,99327.53
2019-05-21T21:05:30.974Z,99318.25
2019-05-21T21:08:00.586Z,99319.00
2019-05-21T21:10:30.326Z,99319.00
2019-05-21T21:12:59.781Z,99315.43
2019-05-21T21:15:29.388Z,99312.48
2019-05-21T21:18:00.236Z,99312.48
2019-05-21T21:20:29.654Z,99300.66
2019-05-21T21:22:59.107Z,99300.66
2019-05-21T21:25:30.505Z,99298.86
2019-05-21T21:28:00.935Z,99301.08
2019-05-21T21:30:31.111Z,99303.64
2019-05-21T21:33:01.222Z,99304.55
2019-05-21T21:35:31.551Z,99298.41
2019-05-21T21:38:02.101Z,99302.06
2019-05-21T21:40:32.199Z,99300.58
2019-05-21T21:43:01.668Z,99304.31
2019-05-21T21:45:32.323Z,99310.69
2019-05-21T21:48:01.955Z,99310.69
2019-05-21T21:50:31.588Z,99309.51
2019-05-21T21:53:01.141Z,99309.98
2019-05-21T21:55:32.085Z,99309.23
2019-05-21T21:58:02.074Z,99306.55
2019-05-21T22:01:00.157Z,99309.48
2019-05-21T22:03:32.672Z,99307.77
2019-05-21T22:06:04.690Z,99304.34
2019-05-21T22:08:34.535Z,99308.16
2019-05-21T22:11:04.080Z,99302.03
2019-05-21T22:13:34.088Z,99311.74
2019-05-21T22:16:04.200Z,99307.42
2019-05-21T22:18:33.770Z,99306.44
2019-05-21T22:21:03.405Z,99305.11
2019-05-21T22:23:32.873Z,99308.56
2019-05-21T22:26:02.327Z,99310.45
2019-05-21T22:28:31.974Z,99312.16
2019-05-21T22:31:01.545Z,99303.89
2019-05-21T22:33:30.984Z,99302.13
2019-05-21T22:36:00.447Z,99304.22
2019-05-21T22:38:32.310Z,99308.69
2019-05-21T22:41:01.758Z,99316.42
2019-05-21T22:46:07.448Z,99334.52
2019-05-21T22:48:36.888Z,99334.38
2019-05-21T22:51:06.358Z,99328.48
2019-05-21T22:53:35.772Z,99327.33
2019-05-21T22:56:05.264Z,99334.00
2019-05-21T22:58:34.707Z,99325.13
2019-05-21T23:01:06.312Z,99337.14
2019-05-21T23:03:35.766Z,99327.04
2019-05-21T23:06:05.201Z,99341.88
2019-05-21T23:08:34.571Z,99339.92
2019-05-21T23:11:04.078Z,99334.27
2019-05-21T23:13:33.513Z,99326.95
2019-05-21T23:16:02.865Z,99332.66
2019-05-21T23:18:33.478Z,99331.86
2019-05-21T23:21:04.710Z,99328.88
2019-05-21T23:23:35.829Z,99335.35
2019-05-21T23:26:06.304Z,99331.02
2019-05-21T23:28:35.939Z,99338.87
2019-05-21T23:31:06.247Z,99335.36
2019-05-21T23:33:36.129Z,99339.45
2019-05-21T23:36:05.938Z,99339.10
2019-05-21T23:38:36.719Z,99329.13
2019-05-21T23:41:07.170Z,99328.66
2019-05-21T23:43:36.688Z,99335.74
2019-05-21T23:46:06.336Z,99323.74
2019-05-21T23:48:36.422Z,99328.90
2019-05-21T23:51:05.768Z,99331.30
2019-05-21T23:53:35.189Z,99327.23
2019-05-21T23:56:04.707Z,99329.75
2019-05-21T23:58:34.418Z,99331.80
